createdAt,value
2023-04-17T00:00:01.500Z,100.00
2023-04-17T00:02:29.972Z,100.00
2023-04-17T00:04:57.946Z,100.00
2023-04-17T00:07:28.301Z,100.00
2023-04-17T00:09:56.105Z,100.00
2023-04-17T00:12:23.809Z,100.00
2023-04-17T00:14:52.915Z,100.00
2023-04-17T00:17:20.650Z,100.00
2023-04-17T00:19:48.646Z,100.00
2023-04-17T00:22:16.346Z,100.00
2023-04-17T00:24:44.134Z,100.00
2023-04-17T00:27:11.886Z,100.00
2023-04-17T00:29:39.680Z,100.00
2023-04-17T00:32:09.016Z,100.00
2023-04-17T00:34:37.998Z,100.00
2023-04-17T00:37:05.784Z,100.00
2023-04-17T00:39:33.545Z,100.00
2023-04-17T00:42:01.633Z,100.00
2023-04-17T00:44:29.476Z,100.00
2023-04-17T00:46:57.728Z,100.00
2023-04-17T00:49:27.569Z,100.00
2023-04-17T00:51:55.950Z,100.00
2023-04-17T00:54:25.674Z,100.00
2023-04-17T00:56:57.720Z,100.00
2023-04-17T00:59:29.420Z,100.00
2023-04-17T01:01:57.228Z,100.00
2023-04-17T01:04:26.722Z,100.00
2023-04-17T01:06:54.723Z,100.00
2023-04-17T01:09:22.583Z,100.00
2023-04-17T01:11:50.304Z,100.00
2023-04-17T01:14:18.081Z,100.00
2023-04-17T01:16:46.068Z,100.00
2023-04-17T01:19:16.118Z,100.00
2023-04-17T01:21:45.482Z,100.00
2023-04-17T01:24:15.423Z,100.00
2023-04-17T01:26:43.650Z,100.00
2023-04-17T01:29:11.653Z,100.00
2023-04-17T01:31:39.786Z,100.00
2023-04-17T01:34:07.559Z,100.00
2023-04-17T01:36:35.338Z,100.00
2023-04-17T01:39:03.952Z,100.00
2023-04-17T01:41:33.138Z,100.00
2023-04-17T01:44:01.109Z,100.00
2023-04-17T01:46:30.392Z,100.00
2023-04-17T01:48:58.152Z,100.00
2023-04-17T01:51:25.833Z,100.00
2023-04-17T01:53:54.056Z,100.00
2023-04-17T01:56:21.853Z,100.00
2023-04-17T01:58:51.737Z,100.00
2023-04-17T02:01:20.841Z,100.00
2023-04-17T02:03:48.839Z,100.00
2023-04-17T02:06:16.959Z,100.00
2023-04-17T02:08:45.580Z,100.00
2023-04-17T02:11:15.240Z,100.00
2023-04-17T02:13:42.954Z,100.00
2023-04-17T02:16:12.697Z,100.00
2023-04-17T02:18:42.965Z,100.00
2023-04-17T02:21:10.768Z,100.00
2023-04-17T02:23:38.505Z,100.00
2023-04-17T02:26:06.451Z,100.00
2023-04-17T02:28:34.177Z,100.00
2023-04-17T02:31:03.387Z,100.00
2023-04-17T02:33:32.539Z,100.00
2023-04-17T02:36:00.900Z,100.00
2023-04-17T02:38:37.774Z,100.00
2023-04-17T02:41:06.206Z,100.00
2023-04-17T02:43:34.929Z,100.00
2023-04-17T02:46:02.672Z,100.00
2023-04-17T02:48:32.361Z,100.00
2023-04-17T02:51:00.100Z,100.00
2023-04-17T02:53:28.466Z,100.00
2023-04-17T02:55:58.116Z,100.00
2023-04-17T02:58:26.316Z,100.00
2023-04-17T03:01:01.390Z,100.00
2023-04-17T03:03:34.752Z,100.00
2023-04-17T03:06:10.428Z,100.00
2023-04-17T03:08:38.511Z,100.00
2023-04-17T03:11:07.072Z,100.00
2023-04-17T03:13:36.667Z,100.00
2023-04-17T03:16:05.587Z,100.00
2023-04-17T03:18:40.754Z,100.00
2023-04-17T03:21:09.197Z,100.00
2023-04-17T03:23:37.039Z,100.00
2023-04-17T03:26:06.585Z,100.00
2023-04-17T03:28:34.974Z,100.00
2023-04-17T03:31:03.873Z,100.00
2023-04-17T03:33:33.866Z,100.00
2023-04-17T03:36:03.694Z,100.00
2023-04-17T03:38:31.860Z,100.00
2023-04-17T03:40:59.908Z,100.00
2023-04-17T03:43:28.214Z,100.00
2023-04-17T03:45:56.051Z,100.00
2023-04-17T03:48:24.269Z,100.00
2023-04-17T03:50:52.671Z,100.00
2023-04-17T03:53:21.884Z,100.00
2023-04-17T03:55:50.824Z,100.00
2023-04-17T03:58:26.876Z,100.00
2023-04-17T04:00:55.642Z,100.00
2023-04-17T04:03:26.867Z,100.00
2023-04-17T04:05:56.142Z,100.00
2023-04-17T04:08:25.418Z,100.00
2023-04-17T04:10:55.427Z,100.00
2023-04-17T04:13:33.848Z,100.00
2023-04-17T04:16:03.220Z,100.00
2023-04-17T04:18:33.686Z,100.00
2023-04-17T04:21:02.067Z,100.00
2023-04-17T04:23:39.701Z,100.00
2023-04-17T04:26:07.809Z,100.00
2023-04-17T04:28:39.157Z,100.00
2023-04-17T04:31:10.848Z,100.00
2023-04-17T04:33:41.453Z,100.00
2023-04-17T04:36:09.433Z,100.00
2023-04-17T04:38:38.874Z,100.00
2023-04-17T04:41:17.502Z,100.00
2023-04-17T04:43:45.387Z,100.00
2023-04-17T04:46:13.699Z,100.00
2023-04-17T04:48:46.930Z,100.00
2023-04-17T04:51:14.865Z,100.00
2023-04-17T04:53:45.218Z,100.00
2023-04-17T04:56:15.467Z,100.00
2023-04-17T04:58:44.290Z,100.00
2023-04-17T05:01:12.180Z,100.00
2023-04-17T05:03:45.198Z,100.00
2023-04-17T05:06:17.470Z,100.00
2023-04-17T05:08:51.287Z,100.00
2023-04-17T05:11:19.123Z,100.00
2023-04-17T05:13:46.900Z,100.00
2023-04-17T05:16:20.072Z,100.00
2023-04-17T05:18:48.271Z,100.00
2023-04-17T05:21:20.291Z,100.00
2023-04-17T05:23:52.294Z,100.00
2023-04-17T05:26:21.941Z,100.00
2023-04-17T05:28:50.378Z,100.00
2023-04-17T05:31:23.584Z,100.00
2023-04-17T05:33:52.192Z,100.00
2023-04-17T05:36:22.287Z,100.00
2023-04-17T05:38:52.630Z,100.00
2023-04-17T05:41:20.677Z,100.00
2023-04-17T05:43:48.470Z,100.00
2023-04-17T05:46:16.194Z,100.00
2023-04-17T05:48:44.443Z,100.00
2023-04-17T05:51:12.347Z,100.00
2023-04-17T05:53:40.205Z,100.00
2023-04-17T05:56:09.333Z,100.00
2023-04-17T05:58:37.287Z,100.00
2023-04-17T06:01:06.705Z,100.00
2023-04-17T06:03:35.414Z,100.00
2023-04-17T06:06:11.344Z,100.00
2023-04-17T06:08:39.176Z,100.00
2023-04-17T06:11:07.613Z,100.00
2023-04-17T06:13:37.012Z,100.00
2023-04-17T06:16:05.591Z,100.00
2023-04-17T06:18:33.433Z,100.00
2023-04-17T06:21:01.777Z,100.00
2023-04-17T06:23:29.809Z,100.00
2023-04-17T06:25:57.666Z,100.00
2023-04-17T06:28:25.607Z,100.00
2023-04-17T06:30:56.806Z,100.00
2023-04-17T06:33:26.632Z,100.00
2023-04-17T06:35:55.277Z,100.00
2023-04-17T06:38:49.081Z,100.00
2023-04-17T06:41:18.954Z,100.00
2023-04-17T06:43:46.742Z,100.00
2023-04-17T06:46:16.947Z,100.00
2023-04-17T06:48:44.694Z,100.00
2023-04-17T06:51:12.399Z,100.00
2023-04-17T06:53:40.109Z,100.00
2023-04-17T06:56:08.045Z,100.00
2023-04-17T06:58:42.212Z,100.00
2023-04-17T07:01:09.958Z,100.00
2023-04-17T07:03:39.932Z,100.00
2023-04-17T07:06:08.545Z,100.00
2023-04-17T07:08:36.576Z,100.00
2023-04-17T07:11:04.323Z,100.00
2023-04-17T07:13:33.254Z,100.00
2023-04-17T07:16:01.630Z,100.00
2023-04-17T07:18:30.401Z,100.00
2023-04-17T07:20:59.607Z,100.00
2023-04-17T07:23:27.395Z,100.00
2023-04-17T07:25:55.163Z,100.00
2023-04-17T07:28:23.171Z,100.00
2023-04-17T07:30:51.158Z,100.00
2023-04-17T07:33:18.932Z,100.00
2023-04-17T07:35:46.631Z,100.00
2023-04-17T07:38:16.066Z,100.00
2023-04-17T07:40:44.418Z,100.00
2023-04-17T07:43:12.134Z,100.00
2023-04-17T07:45:41.840Z,100.00
2023-04-17T07:48:10.587Z,100.00
2023-04-17T07:50:38.390Z,100.00
2023-04-17T07:53:06.185Z,100.00
2023-04-17T07:55:35.617Z,100.00
2023-04-17T07:58:03.898Z,100.00
2023-04-17T08:00:32.484Z,100.00
2023-04-17T08:03:02.251Z,100.00
2023-04-17T08:05:30.527Z,100.00
2023-04-17T08:08:00.194Z,100.00
2023-04-17T08:10:28.082Z,100.00
2023-04-17T08:12:57.159Z,100.00
2023-04-17T08:15:24.905Z,100.00
2023-04-17T08:17:52.779Z,100.00
2023-04-17T08:20:20.799Z,100.00
2023-04-17T08:22:48.596Z,100.00
2023-04-17T08:25:16.461Z,100.00
2023-04-17T08:27:45.112Z,100.00
2023-04-17T08:30:18.469Z,100.00
2023-04-17T08:32:50.193Z,100.00
2023-04-17T08:35:18.174Z,100.00
2023-04-17T08:37:46.823Z,100.00
2023-04-17T08:40:17.049Z,100.00
2023-04-17T08:42:47.525Z,100.00
2023-04-17T08:45:17.491Z,100.00
2023-04-17T08:47:45.293Z,100.00
2023-04-17T08:50:15.709Z,100.00
2023-04-17T08:52:44.305Z,100.00
2023-04-17T08:55:13.954Z,100.00
2023-04-17T08:57:58.677Z,100.00
2023-04-17T09:00:29.822Z,100.00
2023-04-17T09:02:59.291Z,100.00
2023-04-17T09:05:30.290Z,100.00
2023-04-17T09:08:09.236Z,100.00
2023-04-17T09:10:38.026Z,100.00
2023-04-17T09:13:06.272Z,100.00
2023-04-17T09:15:36.600Z,100.00
2023-04-17T09:18:05.215Z,100.00
2023-04-17T09:20:33.580Z,100.00
2023-04-17T09:23:03.786Z,98.54
2023-04-17T09:25:31.511Z,99.61
2023-04-17T09:28:12.695Z,98.76
2023-04-17T09:30:42.986Z,99.86
2023-04-17T09:33:11.794Z,99.27
2023-04-17T09:35:40.529Z,98.43
2023-04-17T09:38:08.576Z,98.53
2023-04-17T09:40:40.675Z,97.11
2023-04-17T09:43:10.526Z,96.56
2023-04-17T09:45:43.798Z,93.56
2023-04-17T09:48:13.223Z,95.18
2023-04-17T09:50:41.409Z,94.87
2023-04-17T09:53:09.734Z,91.50
2023-04-17T09:55:38.009Z,91.12
2023-04-17T09:58:08.161Z,90.22
2023-04-17T10:00:37.872Z,87.26
2023-04-17T10:03:08.413Z,88.38
2023-04-17T10:05:36.797Z,88.24
2023-04-17T10:08:05.629Z,85.34
2023-04-17T10:10:36.205Z,85.81
2023-04-17T10:13:06.641Z,81.35
2023-04-17T10:15:35.259Z,82.46
2023-04-17T10:18:24.296Z,80.66
2023-04-17T10:20:55.189Z,82.09
2023-04-17T10:23:31.511Z,80.29
2023-04-17T10:26:42.075Z,77.67
2023-04-17T10:29:10.464Z,71.68
2023-04-17T10:32:26.205Z,67.23
2023-04-17T10:34:57.173Z,68.75
2023-04-17T10:37:54.658Z,62.40
2023-04-17T10:40:24.780Z,64.84
2023-04-17T10:43:03.923Z,62.09
2023-04-17T10:45:53.815Z,62.31
2023-04-17T10:48:23.149Z,62.59
2023-04-17T10:50:52.288Z,60.81
2023-04-17T10:53:42.716Z,61.31
2023-04-17T10:56:11.320Z,60.26
2023-04-17T10:58:56.876Z,58.59
2023-04-17T11:01:28.350Z,56.64
2023-04-17T11:03:57.035Z,56.90
2023-04-17T11:06:28.826Z,55.55
2023-04-17T11:08:57.811Z,55.35
2023-04-17T11:11:35.262Z,54.13
2023-04-17T11:14:14.838Z,52.73
2023-04-17T11:16:44.307Z,53.48
2023-04-17T11:19:14.169Z,52.31
2023-04-17T11:21:44.984Z,51.03
2023-04-17T11:24:13.018Z,51.00
2023-04-17T11:26:44.423Z,50.67
2023-04-17T11:29:16.703Z,49.17
2023-04-17T11:31:45.605Z,50.51
2023-04-17T11:34:14.138Z,50.93
2023-04-17T11:36:41.920Z,47.79
2023-04-17T11:39:11.293Z,50.01
2023-04-17T11:41:39.638Z,50.04
2023-04-17T11:44:09.994Z,47.70
2023-04-17T11:46:37.789Z,46.62
2023-04-17T11:49:06.118Z,45.54
2023-04-17T11:51:34.141Z,44.87
2023-04-17T11:54:01.943Z,45.86
2023-04-17T11:56:31.119Z,43.49
2023-04-17T11:59:00.188Z,44.48
2023-04-17T12:01:29.359Z,47.38
2023-04-17T12:03:58.761Z,45.68
2023-04-17T12:06:37.083Z,44.62
2023-04-17T12:09:06.947Z,45.77
2023-04-17T12:11:36.787Z,46.10
2023-04-17T12:14:05.156Z,46.74
2023-04-17T12:16:33.123Z,47.51
2023-04-17T12:19:01.059Z,49.13
2023-04-17T12:21:28.755Z,47.67
2023-04-17T12:23:56.478Z,46.50
2023-04-17T12:26:25.183Z,44.92
2023-04-17T12:28:54.278Z,46.45
2023-04-17T12:31:22.125Z,45.83
2023-04-17T12:33:50.001Z,44.84
2023-04-17T12:36:17.748Z,41.15
2023-04-17T12:38:46.440Z,42.23
2023-04-17T12:41:14.219Z,40.87
2023-04-17T12:43:41.993Z,39.78
2023-04-17T12:46:11.169Z,40.47
2023-04-17T12:48:38.915Z,41.25
2023-04-17T12:51:06.946Z,43.89
2023-04-17T12:53:34.686Z,41.27
2023-04-17T12:56:02.452Z,41.05
2023-04-17T12:58:30.292Z,39.96
2023-04-17T13:00:58.085Z,40.94
2023-04-17T13:03:27.334Z,42.42
2023-04-17T13:05:55.264Z,41.58
2023-04-17T13:08:22.986Z,42.45
2023-04-17T13:10:50.769Z,44.04
2023-04-17T13:13:18.512Z,43.89
2023-04-17T13:15:47.400Z,44.35
2023-04-17T13:18:15.689Z,44.92
2023-04-17T13:20:44.756Z,43.77
2023-04-17T13:23:14.340Z,43.01
2023-04-17T13:25:42.199Z,42.83
2023-04-17T13:28:13.022Z,41.86
2023-04-17T13:30:40.778Z,41.24
2023-04-17T13:33:08.696Z,41.45
2023-04-17T13:35:36.743Z,42.15
2023-04-17T13:38:05.896Z,40.76
2023-04-17T13:40:33.614Z,42.28
2023-04-17T13:43:01.369Z,41.42
2023-04-17T13:45:29.030Z,40.66
2023-04-17T13:47:56.843Z,40.58
2023-04-17T13:50:24.658Z,41.49
2023-04-17T13:52:52.352Z,41.13
2023-04-17T13:55:21.527Z,40.71
2023-04-17T13:57:49.297Z,43.00
2023-04-17T14:00:18.309Z,44.79
2023-04-17T14:02:46.338Z,44.82
2023-04-17T14:05:14.406Z,44.64
2023-04-17T14:07:42.230Z,45.83
2023-04-17T14:10:10.975Z,46.35
2023-04-17T14:12:40.097Z,47.19
2023-04-17T14:15:09.059Z,47.44
2023-04-17T14:17:38.109Z,47.60
2023-04-17T14:20:07.420Z,48.29
2023-04-17T14:22:35.183Z,47.66
2023-04-17T14:25:02.975Z,48.83
2023-04-17T14:27:30.802Z,48.45
2023-04-17T14:30:01.378Z,49.67
2023-04-17T14:32:29.509Z,48.38
2023-04-17T14:34:57.292Z,48.89
2023-04-17T14:37:25.207Z,48.92
2023-04-17T14:39:53.047Z,50.03
2023-04-17T14:42:20.905Z,50.99
2023-04-17T14:44:48.654Z,50.09
2023-04-17T14:47:17.860Z,50.14
2023-04-17T14:49:45.760Z,48.95
2023-04-17T14:52:13.495Z,50.64
2023-04-17T14:54:41.286Z,50.04
2023-04-17T14:57:09.280Z,49.78
2023-04-17T14:59:37.089Z,48.88
2023-04-17T15:02:07.145Z,47.65
2023-04-17T15:04:36.416Z,49.37
2023-04-17T15:07:04.824Z,50.52
2023-04-17T15:09:32.724Z,49.21
2023-04-17T15:12:03.099Z,50.13
2023-04-17T15:14:30.997Z,49.93
2023-04-17T15:17:01.551Z,47.65
2023-04-17T15:19:29.509Z,48.00
2023-04-17T15:21:58.616Z,47.38
2023-04-17T15:24:26.391Z,47.97
2023-04-17T15:26:54.074Z,48.08
2023-04-17T15:29:21.850Z,48.91
2023-04-17T15:31:52.889Z,47.84
2023-04-17T15:34:20.947Z,48.71
2023-04-17T15:36:48.778Z,48.75
2023-04-17T15:39:18.113Z,48.66
2023-04-17T15:41:46.019Z,48.11
2023-04-17T15:44:13.695Z,46.79
2023-04-17T15:46:41.556Z,46.51
2023-04-17T15:49:09.627Z,46.46
2023-04-17T15:51:39.514Z,46.73
2023-04-17T15:54:11.716Z,47.54
2023-04-17T15:56:41.418Z,46.50
2023-04-17T15:59:09.173Z,46.37
2023-04-17T16:01:36.963Z,46.15
2023-04-17T16:04:05.337Z,47.51
2023-04-17T16:06:33.673Z,48.58
2023-04-17T16:09:01.891Z,48.08
2023-04-17T16:11:29.533Z,47.81
2023-04-17T16:13:58.713Z,47.34
2023-04-17T16:16:29.369Z,47.84
2023-04-17T16:18:57.550Z,46.65
2023-04-17T16:21:26.770Z,47.05
2023-04-17T16:23:54.547Z,48.03
2023-04-17T16:26:22.339Z,48.22
2023-04-17T16:28:50.069Z,47.40
2023-04-17T16:31:21.169Z,47.24
2023-04-17T16:33:48.976Z,48.01
2023-04-17T16:36:16.715Z,49.10
2023-04-17T16:38:45.629Z,48.63
2023-04-17T16:41:13.394Z,49.53
2023-04-17T16:43:42.484Z,49.30
2023-04-17T16:46:20.550Z,48.36
2023-04-17T16:48:54.059Z,46.08
2023-04-17T16:51:23.684Z,46.00
2023-04-17T16:53:51.664Z,46.85
2023-04-17T16:56:19.487Z,47.57
2023-04-17T16:58:47.291Z,48.12
2023-04-17T17:01:18.236Z,47.02
2023-04-17T17:03:46.553Z,47.25
2023-04-17T17:06:18.781Z,45.17
2023-04-17T17:08:46.869Z,45.52
2023-04-17T17:11:14.930Z,46.17
2023-04-17T17:13:42.679Z,45.34
2023-04-17T17:16:10.416Z,46.35
2023-04-17T17:18:38.185Z,46.15
2023-04-17T17:21:07.064Z,45.50
2023-04-17T17:23:36.755Z,45.68
2023-04-17T17:26:04.586Z,46.08
2023-04-17T17:28:32.428Z,46.81
2023-04-17T17:31:01.580Z,46.55
2023-04-17T17:33:29.572Z,46.21
2023-04-17T17:35:57.478Z,46.43
2023-04-17T17:38:28.410Z,46.53
2023-04-17T17:40:57.659Z,46.37
2023-04-17T17:43:25.718Z,47.14
2023-04-17T17:45:53.568Z,47.27
2023-04-17T17:48:21.506Z,47.35
2023-04-17T17:50:54.190Z,48.94
2023-04-17T17:53:27.223Z,49.22
2023-04-17T17:55:57.893Z,49.71
2023-04-17T17:58:25.933Z,48.79
2023-04-17T18:00:53.838Z,48.86
2023-04-17T18:03:22.325Z,49.19
2023-04-17T18:05:51.413Z,48.93
2023-04-17T18:08:19.231Z,51.66
2023-04-17T18:10:46.946Z,50.85
2023-04-17T18:13:16.227Z,50.34
2023-04-17T18:15:44.060Z,51.39
2023-04-17T18:18:11.848Z,50.42
2023-04-17T18:20:40.450Z,52.03
2023-04-17T18:23:08.229Z,53.75
2023-04-17T18:25:36.573Z,53.63
2023-04-17T18:28:04.808Z,53.91
2023-04-17T18:30:34.252Z,54.95
2023-04-17T18:33:02.040Z,55.76
2023-04-17T18:35:34.072Z,55.86
2023-04-17T18:38:02.072Z,56.90
2023-04-17T18:40:30.636Z,57.76
2023-04-17T18:42:58.616Z,59.06
2023-04-17T18:45:26.615Z,58.95
2023-04-17T18:47:55.844Z,60.59
2023-04-17T18:50:23.734Z,61.40
2023-04-17T18:52:51.532Z,61.82
2023-04-17T18:55:19.385Z,63.65
2023-04-17T18:57:47.117Z,65.92
2023-04-17T19:00:15.318Z,66.71
2023-04-17T19:02:43.348Z,66.21
2023-04-17T19:05:12.597Z,66.47
2023-04-17T19:07:40.522Z,67.32
2023-04-17T19:10:09.267Z,69.21
2023-04-17T19:12:37.122Z,69.23
2023-04-17T19:15:05.635Z,70.27
2023-04-17T19:17:33.490Z,70.35
2023-04-17T19:20:01.355Z,71.53
2023-04-17T19:22:30.607Z,71.37
2023-04-17T19:24:58.481Z,72.87
2023-04-17T19:27:27.151Z,72.85
2023-04-17T19:29:55.178Z,74.00
2023-04-17T19:32:22.968Z,75.05
2023-04-17T19:34:50.804Z,75.65
2023-04-17T19:37:18.583Z,75.49
2023-04-17T19:39:47.737Z,75.58
2023-04-17T19:42:15.429Z,75.50
2023-04-17T19:44:43.117Z,75.22
2023-04-17T19:47:11.391Z,77.05
2023-04-17T19:49:39.393Z,77.75
2023-04-17T19:52:07.124Z,78.66
2023-04-17T19:54:34.803Z,79.27
2023-04-17T19:57:03.967Z,79.48
2023-04-17T19:59:31.660Z,77.57
2023-04-17T20:01:59.426Z,79.26
2023-04-17T20:04:27.265Z,79.34
2023-04-17T20:06:55.186Z,78.21
2023-04-17T20:09:22.909Z,78.07
2023-04-17T20:11:50.673Z,79.24
2023-04-17T20:14:20.701Z,81.80
2023-04-17T20:16:50.012Z,82.05
2023-04-17T20:19:17.963Z,82.58
2023-04-17T20:21:46.807Z,82.08
2023-04-17T20:24:15.859Z,81.32
2023-04-17T20:26:44.830Z,81.95
2023-04-17T20:29:12.921Z,79.88
2023-04-17T20:31:42.249Z,81.68
2023-04-17T20:34:10.184Z,81.75
2023-04-17T20:36:37.914Z,81.79
2023-04-17T20:39:07.114Z,84.22
2023-04-17T20:41:34.966Z,83.10
2023-04-17T20:44:03.090Z,83.97
2023-04-17T20:46:31.665Z,82.19
2023-04-17T20:49:00.873Z,82.50
2023-04-17T20:51:28.725Z,82.65
2023-04-17T20:53:56.508Z,84.23
2023-04-17T20:56:24.602Z,83.11
2023-04-17T20:58:52.426Z,84.71
2023-04-17T21:01:20.988Z,83.68
2023-04-17T21:03:48.867Z,84.09
2023-04-17T21:06:21.035Z,84.60
2023-04-17T21:08:48.793Z,84.36
2023-04-17T21:11:16.554Z,83.84
2023-04-17T21:13:44.285Z,83.40
2023-04-17T21:16:12.476Z,83.95
2023-04-17T21:18:40.400Z,83.59
2023-04-17T21:21:08.113Z,82.92
2023-04-17T21:23:37.188Z,84.90
2023-04-17T21:26:05.149Z,84.64
2023-04-17T21:28:32.966Z,86.69
2023-04-17T21:31:00.730Z,86.67
2023-04-17T21:33:28.620Z,85.64
2023-04-17T21:35:56.451Z,85.50
2023-04-17T21:38:24.159Z,85.85
2023-04-17T21:40:53.227Z,84.65
2023-04-17T21:43:20.967Z,85.24
2023-04-17T21:45:49.885Z,84.31
2023-04-17T21:48:18.020Z,86.62
2023-04-17T21:50:45.833Z,85.64
2023-04-17T21:53:13.556Z,85.33
2023-04-17T21:55:41.555Z,83.83
2023-04-17T21:58:10.664Z,85.06
2023-04-17T22:00:38.426Z,85.94
2023-04-17T22:03:06.268Z,86.29
2023-04-17T22:05:34.032Z,86.44
2023-04-17T22:08:02.228Z,85.81
2023-04-17T22:10:30.647Z,85.13
2023-04-17T22:12:58.335Z,85.67
2023-04-17T22:15:27.620Z,86.21
2023-04-17T22:17:55.368Z,87.24
2023-04-17T22:20:23.069Z,88.46
2023-04-17T22:22:50.723Z,89.80
2023-04-17T22:25:18.717Z,91.07
2023-04-17T22:27:46.526Z,90.86
2023-04-17T22:30:14.457Z,91.89
2023-04-17T22:32:43.711Z,92.22
2023-04-17T22:35:11.582Z,92.79
2023-04-17T22:37:39.282Z,93.68
2023-04-17T22:40:08.487Z,93.66
2023-04-17T22:42:36.257Z,94.27
2023-04-17T22:45:04.316Z,94.22
2023-04-17T22:47:32.122Z,94.76
2023-04-17T22:50:02.370Z,95.34
2023-04-17T22:52:30.300Z,95.22
2023-04-17T22:54:58.278Z,95.49
2023-04-17T22:57:26.043Z,94.90
2023-04-17T22:59:53.898Z,94.07
2023-04-17T23:02:21.731Z,94.34
2023-04-17T23:04:49.569Z,92.83
2023-04-17T23:07:18.729Z,92.03
2023-04-17T23:09:47.033Z,92.12
2023-04-17T23:12:14.751Z,92.37
2023-04-17T23:14:43.414Z,92.37
2023-04-17T23:17:11.120Z,94.50
2023-04-17T23:19:38.951Z,93.69
2023-04-17T23:22:07.422Z,95.01
2023-04-17T23:24:36.671Z,95.34
2023-04-17T23:27:04.567Z,96.01
2023-04-17T23:29:32.268Z,95.32
2023-04-17T23:32:00.449Z,95.63
2023-04-17T23:34:28.393Z,97.20
2023-04-17T23:36:56.128Z,96.02
2023-04-17T23:39:24.192Z,95.16
2023-04-17T23:41:53.414Z,96.49
2023-04-17T23:44:21.261Z,95.80
2023-04-17T23:46:49.079Z,97.40
2023-04-17T23:49:16.830Z,96.04
2023-04-17T23:51:44.800Z,94.12
2023-04-17T23:54:12.922Z,92.99
2023-04-17T23:56:43.365Z,93.85
2023-04-17T23:59:12.606Z,94.31
